Time;durP1;ratioP1;P1;durP2;ratioP2;P2;SDS_P1;SDS_P2;PMS_P1;PMS_P2;Temp;Humidity;BMP_temperature;BMP_pressure;BME280_temperature;BME280_humidity;BME280_pressure;Samples;Min_cycle;Max_cycle;Signal;HPM_P1;HPM_P2
2024/03/01 00:01:37;;;;;;;34.40;16.60;;;9.50;32.40;;;;;;5031452;28;20391;-75
2024/03/01 00:04:03;;;;;;;29.10;15.67;;;9.40;33.10;;;;;;5031488;28;20383;-74
2024/03/01 00:06:28;;;;;;;27.20;14.23;;;9.40;33.20;;;;;;5031226;28;20386;-75
2024/03/01 00:08:55;;;;;;;25.70;14.32;;;9.40;32.70;;;;;;5031575;28;20387;-77
2024/03/01 00:11:21;;;;;;;25.55;14.38;;;9.40;32.60;;;;;;5031084;28;20506;-74
2024/03/01 00:13:46;;;;;;;28.90;14.67;;;9.30;33.00;;;;;;5031537;28;20932;-74
2024/03/01 00:16:12;;;;;;;28.35;15.25;;;9.30;33.40;;;;;;5030497;28;20877;-76
2024/03/01 00:18:37;;;;;;;29.55;15.50;;;9.20;33.60;;;;;;5031691;28;20394;-75
2024/03/01 00:21:03;;;;;;;30.90;15.10;;;9.20;33.70;;;;;;5031794;28;20406;-76
2024/03/01 00:23:29;;;;;;;27.00;14.00;;;9.20;34.30;;;;;;5031495;28;20468;-74
2024/03/01 00:25:55;;;;;;;25.50;13.80;;;9.10;34.20;;;;;;5031581;28;20411;-75
2024/03/01 00:28:21;;;;;;;27.13;15.37;;;9.00;34.40;;;;;;5031420;28;20401;-73
2024/03/01 00:30:47;;;;;;;29.00;15.67;;;9.00;34.60;;;;;;5031332;28;20443;-72
2024/03/01 00:33:12;;;;;;;28.10;15.70;;;8.90;35.20;;;;;;5031513;28;20379;-74
2024/03/01 00:35:38;;;;;;;30.10;15.50;;;8.90;35.80;;;;;;5031223;28;20886;-75
2024/03/01 00:38:04;;;;;;;30.25;15.02;;;8.90;35.90;;;;;;5031106;28;20444;-76
2024/03/01 00:40:29;;;;;;;32.72;16.00;;;8.90;36.00;;;;;;5031011;28;20805;-73
2024/03/01 00:42:55;;;;;;;30.20;15.30;;;8.90;36.10;;;;;;5030972;28;20387;-74
2024/03/01 00:45:21;;;;;;;30.02;16.00;;;8.90;36.30;;;;;;5032867;28;20372;-74
2024/03/01 00:47:48;;;;;;;31.90;16.23;;;8.90;36.60;;;;;;5032434;28;20470;-75
2024/03/01 00:50:14;;;;;;;30.53;16.00;;;8.90;37.00;;;;;;5033637;28;20391;-75
2024/03/01 00:52:44;;;;;;;34.42;16.05;;;8.90;36.70;;;;;;5031230;28;20896;-76
2024/03/01 00:55:10;;;;;;;29.25;15.80;;;8.90;36.80;;;;;;5031157;28;20449;-75
2024/03/01 00:57:35;;;;;;;29.10;16.10;;;8.80;36.80;;;;;;5030683;28;20386;-73
2024/03/01 01:00:01;;;;;;;28.53;15.50;;;8.70;37.10;;;;;;5031094;28;20394;-73
2024/03/01 01:02:27;;;;;;;29.48;15.60;;;8.70;37.50;;;;;;5030996;28;20799;-75
2024/03/01 01:04:52;;;;;;;29.02;15.25;;;8.70;37.50;;;;;;5030519;28;20379;-75
2024/03/01 01:07:19;;;;;;;34.13;16.20;;;8.70;38.00;;;;;;5030477;28;20390;-75
2024/03/01 01:09:45;;;;;;;30.40;17.00;;;8.50;38.10;;;;;;5029369;28;20393;-75
2024/03/01 01:12:11;;;;;;;28.80;15.60;;;8.60;37.90;;;;;;5031056;28;20887;-75
2024/03/01 01:14:36;;;;;;;33.00;16.87;;;8.50;37.90;;;;;;5030931;28;20425;-75
2024/03/01 01:17:02;;;;;;;32.87;16.47;;;8.50;38.90;;;;;;5030727;28;20386;-74
2024/03/01 01:19:28;;;;;;;31.27;16.05;;;8.40;39.20;;;;;;5031228;28;20718;-75
2024/03/01 01:21:53;;;;;;;31.25;16.38;;;8.40;39.00;;;;;;5030669;28;20877;-74
2024/03/01 01:24:19;;;;;;;30.02;15.93;;;8.40;39.40;;;;;;5030223;28;20391;-75
2024/03/01 01:26:45;;;;;;;28.92;16.23;;;8.40;39.20;;;;;;5031994;28;20379;-73
2024/03/01 01:29:10;;;;;;;31.60;16.77;;;8.50;39.30;;;;;;5034185;28;20406;-74
2024/03/01 01:31:36;;;;;;;29.00;16.60;;;8.50;39.70;;;;;;5032496;28;20394;-74
2024/03/01 01:34:01;;;;;;;33.10;15.85;;;8.40;39.10;;;;;;5034115;28;20414;-73
2024/03/01 01:36:27;;;;;;;30.48;16.85;;;8.40;39.30;;;;;;5033816;28;20410;-75
2024/03/01 01:38:52;;;;;;;31.47;17.03;;;8.30;39.70;;;;;;5034352;28;20889;-75
2024/03/01 01:41:18;;;;;;;30.37;17.10;;;8.20;40.60;;;;;;5033559;28;20445;-75
2024/03/01 01:43:43;;;;;;;29.07;15.67;;;8.20;40.20;;;;;;5033772;28;20766;-74
2024/03/01 01:46:14;;;;;;;32.93;16.30;;;8.20;40.80;;;;;;5033649;28;20918;-74
2024/03/01 01:48:41;;;;;;;30.20;16.33;;;8.10;40.80;;;;;;5033706;28;20401;-74
2024/03/01 01:51:07;;;;;;;33.65;16.95;;;8.20;40.80;;;;;;5033933;28;20441;-74
2024/03/01 01:53:34;;;;;;;29.70;16.02;;;8.20;41.00;;;;;;5032763;28;20410;-75
2024/03/01 01:56:00;;;;;;;30.17;16.50;;;8.20;41.30;;;;;;5034341;28;20921;-74
2024/03/01 01:58:26;;;;;;;32.23;16.10;;;8.20;41.20;;;;;;5032599;28;20399;-75
2024/03/01 02:00:52;;;;;;;29.75;16.02;;;8.20;41.00;;;;;;5033672;28;20529;-75
2024/03/01 02:03:19;;;;;;;34.05;17.00;;;8.20;41.30;;;;;;5033346;28;20411;-75
2024/03/01 02:05:45;;;;;;;34.40;17.10;;;8.20;41.40;;;;;;5033441;28;20383;-75
2024/03/01 02:08:11;;;;;;;30.00;15.60;;;8.20;41.20;;;;;;5033598;28;20905;-75
2024/03/01 02:10:36;;;;;;;32.03;16.60;;;8.20;41.00;;;;;;5033429;28;20409;-74
2024/03/01 02:13:02;;;;;;;31.83;16.60;;;8.20;40.60;;;;;;5035046;28;20403;-75
2024/03/01 02:15:29;;;;;;;32.78;17.05;;;8.30;41.20;;;;;;5032797;28;20616;-74
2024/03/01 02:17:56;;;;;;;28.20;16.02;;;8.30;41.30;;;;;;5033575;28;20390;-75
2024/03/01 02:20:23;;;;;;;31.13;16.50;;;8.40;39.90;;;;;;5033281;28;20395;-75
2024/03/01 02:22:55;;;;;;;28.40;15.83;;;8.60;40.50;;;;;;5033267;28;20391;-75
2024/03/01 02:25:20;;;;;;;30.13;15.90;;;8.60;40.10;;;;;;5032115;28;20387;-75
2024/03/01 02:27:47;;;;;;;30.10;16.80;;;8.70;40.00;;;;;;5033421;28;20478;-75
2024/03/01 02:30:13;;;;;;;29.38;15.98;;;8.70;40.20;;;;;;5033299;28;20379;-75
2024/03/01 02:32:39;;;;;;;33.85;17.30;;;8.70;40.50;;;;;;5031977;28;20388;-75
2024/03/01 02:35:05;;;;;;;32.23;17.00;;;8.80;40.30;;;;;;5032843;28;20414;-74
2024/03/01 02:37:30;;;;;;;32.03;17.30;;;8.70;40.40;;;;;;5032126;28;20394;-74
2024/03/01 02:39:56;;;;;;;32.37;17.37;;;8.60;40.40;;;;;;5032510;28;20780;-75
2024/03/01 02:42:21;;;;;;;29.47;15.37;;;8.70;40.60;;;;;;5032837;28;20409;-73
2024/03/01 02:44:47;;;;;;;29.30;16.48;;;8.60;41.00;;;;;;5032772;28;20394;-74
2024/03/01 02:47:12;;;;;;;34.45;17.15;;;8.70;41.30;;;;;;5032551;28;20384;-74
2024/03/01 02:49:39;;;;;;;30.48;15.90;;;8.80;40.70;;;;;;5032505;28;20401;-75
2024/03/01 02:52:05;;;;;;;31.17;15.87;;;8.70;40.40;;;;;;5032388;28;20406;-74
2024/03/01 02:54:31;;;;;;;30.50;15.50;;;8.70;40.60;;;;;;5040213;28;20387;-76
2024/03/01 02:56:56;;;;;;;29.83;15.32;;;8.80;40.70;;;;;;5033364;28;20453;-76
2024/03/01 02:59:22;;;;;;;29.90;15.75;;;8.70;40.70;;;;;;5033252;28;20399;-74
2024/03/01 03:01:48;;;;;;;27.55;15.30;;;8.70;40.10;;;;;;5032900;28;20414;-76
2024/03/01 03:04:13;;;;;;;30.60;15.63;;;8.70;40.20;;;;;;5032745;28;20398;-75
2024/03/01 03:06:39;;;;;;;31.33;16.23;;;8.70;40.30;;;;;;5032737;28;20375;-75
2024/03/01 03:09:09;;;;;;;31.77;17.05;;;8.70;40.70;;;;;;5033330;28;20379;-76
2024/03/01 03:11:35;;;;;;;31.70;16.73;;;8.70;41.10;;;;;;5032603;28;20473;-76
2024/03/01 03:14:02;;;;;;;32.25;16.92;;;8.60;40.70;;;;;;5032459;28;20403;-74
2024/03/01 03:16:28;;;;;;;33.85;17.20;;;8.70;40.90;;;;;;5032523;28;20387;-74
2024/03/01 03:18:53;;;;;;;31.95;16.52;;;8.70;41.10;;;;;;5032781;28;20771;-75
2024/03/01 03:21:19;;;;;;;30.83;16.67;;;8.70;40.40;;;;;;5032136;28;20403;-74
2024/03/01 03:23:45;;;;;;;37.15;17.40;;;8.70;41.10;;;;;;5031951;28;20395;-75
2024/03/01 03:26:11;;;;;;;28.52;15.90;;;8.70;41.40;;;;;;5032218;28;20387;-75
2024/03/01 03:28:37;;;;;;;30.15;15.80;;;8.70;41.00;;;;;;5033650;28;20383;-75
2024/03/01 03:31:03;;;;;;;33.28;16.35;;;8.60;41.50;;;;;;5034763;28;20403;-75
2024/03/01 03:33:28;;;;;;;29.73;16.00;;;8.70;41.60;;;;;;5034445;28;20455;-74
2024/03/01 03:35:54;;;;;;;30.87;16.70;;;8.60;42.30;;;;;;5032874;28;20387;-75
2024/03/01 03:38:20;;;;;;;32.20;17.23;;;8.60;41.90;;;;;;5030750;28;20476;-73
2024/03/01 03:40:45;;;;;;;31.40;16.00;;;8.60;42.50;;;;;;5031530;28;20403;-75
2024/03/01 03:43:11;;;;;;;31.30;15.77;;;8.50;43.20;;;;;;5032159;28;20391;-74
2024/03/01 03:45:36;;;;;;;29.73;15.70;;;8.40;43.60;;;;;;5031564;28;20747;-74
2024/03/01 03:48:04;;;;;;;32.57;16.90;;;8.40;44.10;;;;;;5031672;28;20440;-74
2024/03/01 03:50:30;;;;;;;30.25;15.82;;;8.30;44.70;;;;;;5031405;28;20474;-73
2024/03/01 03:52:56;;;;;;;31.42;16.27;;;8.20;45.40;;;;;;5031814;28;20861;-75
2024/03/01 03:55:22;;;;;;;29.63;16.08;;;8.20;46.40;;;;;;5030377;28;20390;-76
2024/03/01 03:57:47;;;;;;;30.88;16.27;;;8.40;46.80;;;;;;5033065;28;20395;-74
2024/03/01 04:00:16;;;;;;;27.67;15.57;;;8.50;46.50;;;;;;5034452;28;20454;-75
2024/03/01 04:02:43;;;;;;;31.35;15.57;;;8.60;46.10;;;;;;5032811;28;20430;-75
2024/03/01 04:05:09;;;;;;;27.67;15.27;;;8.60;46.30;;;;;;5032969;28;20406;-75
2024/03/01 04:07:35;;;;;;;26.90;14.50;;;8.60;46.20;;;;;;5034300;28;20383;-76
2024/03/01 04:10:00;;;;;;;25.88;13.80;;;8.60;46.50;;;;;;5034471;28;20375;-75
2024/03/01 04:12:27;;;;;;;26.20;14.50;;;8.60;46.90;;;;;;5041631;28;20391;-74
2024/03/01 04:14:52;;;;;;;26.00;14.70;;;8.80;46.90;;;;;;5031199;28;20444;-74
2024/03/01 04:17:18;;;;;;;28.57;14.30;;;8.70;47.20;;;;;;5033516;28;20494;-75
2024/03/01 04:19:43;;;;;;;25.90;14.30;;;8.80;46.80;;;;;;5041071;28;20404;-76
2024/03/01 04:22:09;;;;;;;25.70;13.50;;;8.90;46.50;;;;;;5032912;28;20501;-75
2024/03/01 04:24:35;;;;;;;25.63;13.68;;;8.90;46.70;;;;;;5029051;28;20426;-74
2024/03/01 04:27:00;;;;;;;27.33;13.82;;;9.00;46.60;;;;;;5029573;28;20399;-75
2024/03/01 04:29:27;;;;;;;26.83;14.15;;;9.00;46.70;;;;;;5031158;28;20383;-76
2024/03/01 04:31:53;;;;;;;25.23;13.32;;;9.00;47.10;;;;;;5013003;28;20423;-75
2024/03/01 04:34:19;;;;;;;25.03;12.90;;;9.00;47.30;;;;;;5031622;28;20415;-75
2024/03/01 04:36:45;;;;;;;22.37;12.60;;;9.10;47.40;;;;;;5031793;28;20390;-76
2024/03/01 04:39:14;;;;;;;22.80;12.93;;;9.10;47.20;;;;;;5030783;28;20395;-75
2024/03/01 04:41:40;;;;;;;23.38;13.25;;;9.30;46.50;;;;;;5030654;28;20406;-74
2024/03/01 04:44:06;;;;;;;22.00;12.70;;;9.20;46.90;;;;;;5030688;28;20520;-75
2024/03/01 04:46:31;;;;;;;21.63;12.40;;;9.30;46.90;;;;;;5030555;28;20445;-75
2024/03/01 04:48:57;;;;;;;25.17;13.23;;;9.40;47.00;;;;;;5030887;28;20387;-74
2024/03/01 04:51:24;;;;;;;23.80;12.53;;;9.40;47.30;;;;;;5030907;28;20899;-75
2024/03/01 04:53:49;;;;;;;21.15;11.45;;;9.40;47.00;;;;;;5030504;28;20390;-74
2024/03/01 04:56:17;;;;;;;21.48;12.13;;;9.40;46.80;;;;;;5030358;28;20394;-75
2024/03/01 04:58:43;;;;;;;23.20;13.20;;;9.50;47.50;;;;;;5030311;28;20387;-74
2024/03/01 05:01:10;;;;;;;22.15;12.48;;;9.50;47.00;;;;;;5031192;28;20402;-76
2024/03/01 05:03:36;;;;;;;23.13;12.50;;;9.50;46.90;;;;;;5035396;28;20724;-75
2024/03/01 05:06:03;;;;;;;19.63;11.75;;;9.50;47.30;;;;;;5034850;28;20391;-75
2024/03/01 05:08:30;;;;;;;22.77;12.70;;;9.40;46.80;;;;;;5016952;28;20387;-75
2024/03/01 05:10:56;;;;;;;23.88;12.48;;;9.40;47.30;;;;;;5034756;28;20846;-75
2024/03/01 05:13:21;;;;;;;22.50;12.50;;;9.40;47.30;;;;;;5033965;28;20387;-73
2024/03/01 05:15:48;;;;;;;23.50;13.43;;;9.40;47.20;;;;;;5034043;28;20491;-75
2024/03/01 05:18:14;;;;;;;25.60;13.50;;;9.50;47.20;;;;;;5034453;28;20862;-73
2024/03/01 05:20:40;;;;;;;23.57;13.13;;;9.50;46.70;;;;;;5034240;28;20431;-74
2024/03/01 05:23:05;;;;;;;20.25;12.20;;;9.50;46.50;;;;;;5033932;28;20383;-74
2024/03/01 05:25:31;;;;;;;25.00;13.18;;;9.60;46.30;;;;;;5034303;28;20379;-75
2024/03/01 05:27:57;;;;;;;23.47;14.13;;;9.60;46.80;;;;;;5034272;28;20387;-74
2024/03/01 05:30:24;;;;;;;23.73;12.80;;;9.50;46.70;;;;;;5034764;28;20766;-74
2024/03/01 05:32:50;;;;;;;26.50;12.90;;;9.50;47.10;;;;;;5034471;28;20387;-75
2024/03/01 05:35:18;;;;;;;25.13;13.35;;;9.50;47.00;;;;;;5034921;28;20368;-74
2024/03/01 05:37:44;;;;;;;22.60;12.80;;;9.50;47.30;;;;;;5034149;28;20383;-75
2024/03/01 05:40:10;;;;;;;24.58;12.80;;;9.50;47.50;;;;;;5037826;28;20391;-75
2024/03/01 05:42:39;;;;;;;25.15;13.90;;;9.50;47.30;;;;;;5037236;28;20403;-76
2024/03/01 05:45:07;;;;;;;25.27;13.32;;;9.50;47.50;;;;;;5027901;28;20424;-73
2024/03/01 05:47:34;;;;;;;24.05;13.55;;;9.50;47.40;;;;;;5053713;28;20451;-74
2024/03/01 05:50:00;;;;;;;27.17;13.40;;;9.50;47.80;;;;;;5040964;28;20417;-76
2024/03/01 05:52:26;;;;;;;24.13;13.13;;;9.60;47.50;;;;;;5036481;28;20387;-71
2024/03/01 05:54:52;;;;;;;27.88;13.27;;;9.60;47.40;;;;;;5045511;28;20960;-71
2024/03/01 05:57:17;;;;;;;22.02;13.07;;;9.60;47.70;;;;;;5034058;28;20475;-73
2024/03/01 05:59:43;;;;;;;22.48;13.40;;;9.60;47.70;;;;;;5048833;28;20795;-69
2024/03/01 06:02:10;;;;;;;26.95;14.70;;;9.60;47.90;;;;;;5053599;28;20427;-72
2024/03/01 06:04:35;;;;;;;23.77;13.70;;;9.60;48.20;;;;;;5051216;28;20955;-70
2024/03/01 06:07:01;;;;;;;26.27;13.80;;;9.60;49.30;;;;;;5036391;28;20474;-71
2024/03/01 06:09:26;;;;;;;24.63;13.93;;;9.60;49.70;;;;;;5040568;28;20461;-71
2024/03/01 06:11:52;;;;;;;24.73;14.50;;;9.50;50.10;;;;;;5039697;28;20861;-71
2024/03/01 06:14:18;;;;;;;29.73;14.60;;;9.70;49.70;;;;;;5044885;28;20403;-69
2024/03/01 06:16:44;;;;;;;27.83;13.98;;;9.60;49.50;;;;;;5033962;28;20395;-69
2024/03/01 06:19:09;;;;;;;24.70;13.32;;;9.60;50.00;;;;;;5034212;28;20481;-69
2024/03/01 06:21:35;;;;;;;24.20;12.50;;;9.60;50.30;;;;;;5044578;28;20395;-70
2024/03/01 06:24:01;;;;;;;20.27;11.23;;;9.60;50.80;;;;;;5032844;28;20387;-72
2024/03/01 06:26:27;;;;;;;22.98;11.88;;;9.60;51.10;;;;;;5037648;28;20387;-72
2024/03/01 06:28:53;;;;;;;21.73;10.73;;;9.50;51.80;;;;;;5032993;28;20723;-73
2024/03/01 06:31:18;;;;;;;16.30;8.03;;;9.60;52.00;;;;;;5033561;28;20386;-74
2024/03/01 06:33:44;;;;;;;17.00;8.10;;;9.60;52.30;;;;;;5033065;28;20395;-72
2024/03/01 06:36:09;;;;;;;14.95;8.18;;;9.60;53.20;;;;;;5033090;28;20866;-74
2024/03/01 06:38:36;;;;;;;11.23;6.35;;;9.70;54.20;;;;;;5033047;28;20402;-74
2024/03/01 06:41:02;;;;;;;10.73;6.25;;;9.60;54.40;;;;;;5032590;28;20403;-74
2024/03/01 06:43:28;;;;;;;8.40;5.10;;;9.50;55.00;;;;;;5033020;28;20390;-73
2024/03/01 06:45:54;;;;;;;9.88;5.88;;;9.40;56.30;;;;;;5033610;28;20805;-74
2024/03/01 06:48:21;;;;;;;10.10;5.68;;;9.30;57.70;;;;;;5033534;28;20426;-73
2024/03/01 06:50:46;;;;;;;10.80;5.78;;;9.30;58.70;;;;;;5033047;28;20387;-75
2024/03/01 06:53:12;;;;;;;6.43;4.80;;;9.20;58.60;;;;;;5033155;28;20395;-75
2024/03/01 06:55:38;;;;;;;6.93;4.78;;;9.10;59.20;;;;;;5032903;28;20394;-74
2024/03/01 06:58:03;;;;;;;9.50;4.90;;;9.10;60.00;;;;;;5032812;28;20409;-73
2024/03/01 07:00:30;;;;;;;6.72;4.93;;;9.10;61.30;;;;;;5033953;28;20387;-74
2024/03/01 07:02:56;;;;;;;6.77;5.20;;;9.10;60.60;;;;;;5032966;28;20390;-74
2024/03/01 07:05:22;;;;;;;8.63;5.50;;;9.00;60.80;;;;;;5032620;28;20474;-75
2024/03/01 07:07:47;;;;;;;7.33;5.33;;;9.00;60.70;;;;;;5032232;28;20379;-74
2024/03/01 07:10:13;;;;;;;12.10;6.60;;;8.90;61.70;;;;;;5032000;28;20422;-72
2024/03/01 07:12:39;;;;;;;8.13;6.13;;;8.90;60.00;;;;;;5032060;28;20889;-75
2024/03/01 07:15:06;;;;;;;10.87;7.00;;;8.80;60.00;;;;;;5032005;28;20391;-73
2024/03/01 07:17:32;;;;;;;10.43;7.17;;;8.70;57.50;;;;;;5031781;28;20422;-74
2024/03/01 07:19:57;;;;;;;8.77;6.07;;;8.70;57.50;;;;;;5031817;28;20445;-74
2024/03/01 07:22:23;;;;;;;8.30;6.43;;;8.60;55.90;;;;;;5031970;28;20414;-74
2024/03/01 07:24:48;;;;;;;9.83;6.10;;;8.60;56.10;;;;;;5033168;28;20398;-73
2024/03/01 07:27:14;;;;;;;9.40;6.70;;;8.70;55.90;;;;;;5031977;28;20852;-74
2024/03/01 07:29:39;;;;;;;6.85;5.78;;;8.70;54.80;;;;;;5031588;28;20394;-73
2024/03/01 07:32:05;;;;;;;6.70;5.40;;;8.70;52.10;;;;;;5032325;28;20403;-74
2024/03/01 07:34:31;;;;;;;7.85;5.80;;;8.80;50.40;;;;;;5032339;28;20474;-73
2024/03/01 07:36:58;;;;;;;6.38;4.85;;;8.80;50.60;;;;;;5031793;28;20389;-74
2024/03/01 07:39:23;;;;;;;10.13;5.10;;;8.80;50.70;;;;;;5032839;28;20387;-75
2024/03/01 07:41:49;;;;;;;6.87;4.90;;;8.80;50.40;;;;;;5031999;28;20892;-73
2024/03/01 07:44:14;;;;;;;8.13;5.53;;;8.80;50.80;;;;;;5034027;28;20588;-74
2024/03/01 07:46:40;;;;;;;7.80;5.47;;;8.80;51.30;;;;;;5032862;28;20442;-74
2024/03/01 07:49:06;;;;;;;7.75;5.32;;;8.70;51.80;;;;;;5031296;28;20383;-76
2024/03/01 07:51:31;;;;;;;6.15;4.97;;;8.80;53.00;;;;;;5031235;28;20704;-75
2024/03/01 07:53:57;;;;;;;12.25;5.88;;;8.70;53.00;;;;;;5031008;28;20695;-74
2024/03/01 07:56:26;;;;;;;7.35;5.30;;;8.80;53.00;;;;;;5031227;28;20814;-74
2024/03/01 07:59:02;;;;;;;6.72;4.70;;;8.80;53.40;;;;;;5031232;28;20379;-74
2024/03/01 08:01:28;;;;;;;7.85;4.90;;;8.80;52.80;;;;;;5032676;28;20426;-74
2024/03/01 08:03:56;;;;;;;6.63;4.80;;;9.00;51.90;;;;;;5012985;28;20450;-73
2024/03/01 08:06:22;;;;;;;9.33;4.53;;;9.00;51.40;;;;;;5033043;28;20387;-75
2024/03/01 08:08:49;;;;;;;6.00;4.20;;;9.10;51.00;;;;;;5032896;28;20398;-73
2024/03/01 08:11:27;;;;;;;5.97;4.10;;;9.10;51.10;;;;;;5033033;28;20388;-74
2024/03/01 08:13:52;;;;;;;5.95;4.68;;;9.10;50.70;;;;;;5030748;28;20766;-75
2024/03/01 08:16:21;;;;;;;7.37;4.23;;;9.20;50.50;;;;;;5031502;28;20463;-75
2024/03/01 08:18:46;;;;;;;8.75;4.50;;;9.30;49.70;;;;;;5031722;28;20387;-73
2024/03/01 08:21:13;;;;;;;7.85;4.07;;;9.50;48.70;;;;;;5031206;28;20498;-75
2024/03/01 08:23:41;;;;;;;5.20;4.07;;;9.40;48.20;;;;;;5031292;28;20390;-74
2024/03/01 08:26:12;;;;;;;5.63;4.00;;;9.40;48.50;;;;;;5030623;28;20403;-74
2024/03/01 08:28:40;;;;;;;4.25;3.78;;;9.50;48.50;;;;;;5031381;28;20429;-76
2024/03/01 08:31:29;;;;;;;6.85;3.78;;;9.50;48.00;;;;;;5031378;28;20818;-74
2024/03/01 08:34:08;;;;;;;7.35;4.20;;;9.50;48.60;;;;;;5030565;28;20395;-75
2024/03/01 08:36:34;;;;;;;4.13;3.30;;;9.50;47.50;;;;;;5030277;28;20383;-75
2024/03/01 08:39:00;;;;;;;4.20;3.08;;;9.70;44.40;;;;;;5031015;28;20525;-75
2024/03/01 08:41:26;;;;;;;4.53;3.30;;;9.80;42.60;;;;;;5030940;28;20490;-74
2024/03/01 08:43:55;;;;;;;4.50;3.33;;;10.00;43.00;;;;;;5030986;28;20398;-75
2024/03/01 08:46:28;;;;;;;4.53;3.35;;;10.20;41.40;;;;;;5031003;28;20383;-75
2024/03/01 08:48:54;;;;;;;5.32;3.28;;;10.30;40.40;;;;;;5031182;28;20414;-75
2024/03/01 08:51:19;;;;;;;6.80;2.80;;;10.40;39.50;;;;;;5031231;28;20726;-73
2024/03/01 08:54:00;;;;;;;5.47;3.17;;;10.40;39.20;;;;;;5030811;28;20761;-75
2024/03/01 08:56:38;;;;;;;4.35;3.00;;;10.40;38.60;;;;;;5031235;28;20422;-76
2024/03/01 08:59:28;;;;;;;4.50;3.78;;;10.40;39.10;;;;;;5032330;28;20383;-74
2024/03/01 09:01:53;;;;;;;5.38;3.00;;;10.50;39.30;;;;;;5030086;28;20402;-75
2024/03/01 09:04:31;;;;;;;5.47;3.90;;;10.50;38.50;;;;;;5030917;28;20443;-75
2024/03/01 09:07:13;;;;;;;5.05;3.50;;;10.60;39.00;;;;;;5032234;28;20399;-76
2024/03/01 09:09:39;;;;;;;6.78;3.40;;;10.80;37.30;;;;;;5032985;28;20392;-76
2024/03/01 09:12:15;;;;;;;9.95;3.85;;;11.00;35.90;;;;;;5031172;28;20482;-75
2024/03/01 09:14:40;;;;;;;6.40;3.70;;;11.10;35.70;;;;;;5031600;28;20403;-75
2024/03/01 09:17:11;;;;;;;4.85;3.47;;;11.30;34.80;;;;;;5031898;28;20414;-74
2024/03/01 09:19:40;;;;;;;5.63;3.67;;;11.40;33.80;;;;;;5031227;28;20386;-74
2024/03/01 09:22:05;;;;;;;5.63;4.20;;;11.30;34.20;;;;;;5031057;28;20403;-75
2024/03/01 09:24:38;;;;;;;5.88;3.67;;;11.20;34.40;;;;;;5013333;28;20482;-76
2024/03/01 09:27:16;;;;;;;7.07;3.50;;;11.00;34.00;;;;;;5030972;28;20753;-74
2024/03/01 09:29:44;;;;;;;5.13;3.50;;;11.00;34.70;;;;;;5013623;28;20395;-75
2024/03/01 09:32:10;;;;;;;4.70;3.13;;;11.10;34.60;;;;;;5030995;28;20395;-75
2024/03/01 09:34:38;;;;;;;6.20;3.40;;;11.20;33.60;;;;;;5030745;28;20383;-74
2024/03/01 09:37:10;;;;;;;6.97;3.60;;;11.30;33.90;;;;;;5030701;28;20402;-74
2024/03/01 09:39:35;;;;;;;6.20;3.55;;;11.20;33.20;;;;;;5030817;28;20406;-76
2024/03/01 09:42:04;;;;;;;6.75;3.85;;;11.30;32.60;;;;;;5030765;28;20758;-73
2024/03/01 09:44:49;;;;;;;5.18;3.70;;;11.30;32.40;;;;;;5030735;28;20403;-74
2024/03/01 09:47:35;;;;;;;6.63;4.10;;;11.40;32.90;;;;;;5031248;28;20470;-75
2024/03/01 09:50:26;;;;;;;9.73;4.17;;;11.50;32.90;;;;;;5016667;28;20395;-74
2024/03/01 09:53:07;;;;;;;9.00;4.25;;;11.60;32.20;;;;;;5034299;28;20379;-75
2024/03/01 09:55:45;;;;;;;6.85;3.88;;;11.40;32.30;;;;;;5016535;28;20384;-75
2024/03/01 09:58:36;;;;;;;7.72;4.00;;;11.30;32.80;;;;;;5034075;28;20465;-74
2024/03/01 10:01:05;;;;;;;8.18;4.22;;;11.30;32.80;;;;;;5034590;28;21026;-74
2024/03/01 10:03:59;;;;;;;6.88;4.10;;;11.40;32.90;;;;;;5034162;28;20448;-75
2024/03/01 10:06:54;;;;;;;6.82;3.55;;;11.60;32.20;;;;;;5034084;28;20746;-74
2024/03/01 10:09:38;;;;;;;7.07;3.83;;;11.70;31.90;;;;;;5034100;28;20375;-74
2024/03/01 10:12:32;;;;;;;9.57;3.50;;;11.70;32.00;;;;;;5034009;28;20407;-74
2024/03/01 10:15:03;;;;;;;6.50;3.97;;;11.80;31.50;;;;;;5033641;28;21031;-75
2024/03/01 10:18:07;;;;;;;5.40;3.17;;;11.90;31.10;;;;;;5033714;28;20387;-74
2024/03/01 10:20:52;;;;;;;4.85;3.20;;;12.10;30.90;;;;;;5033777;28;20908;-74
2024/03/01 10:23:27;;;;;;;7.50;3.70;;;11.80;31.10;;;;;;5033377;28;20382;-75
2024/03/01 10:26:00;;;;;;;5.32;3.20;;;11.70;31.80;;;;;;5033229;28;20375;-74
2024/03/01 10:28:50;;;;;;;6.50;3.05;;;11.70;31.80;;;;;;5033539;28;20379;-74
2024/03/01 10:31:36;;;;;;;4.65;3.10;;;11.80;31.20;;;;;;5033516;28;20453;-75
2024/03/01 10:34:10;;;;;;;4.25;2.60;;;11.90;31.50;;;;;;5033272;28;20382;-75
2024/03/01 10:36:41;;;;;;;5.80;2.80;;;11.90;30.60;;;;;;5039191;28;20379;-75
2024/03/01 10:39:15;;;;;;;8.15;2.13;;;12.00;30.90;;;;;;5037967;28;20391;-75
2024/03/01 10:41:58;;;;;;;4.60;2.80;;;12.20;30.40;;;;;;5033566;28;20751;-76
2024/03/01 10:44:35;;;;;;;6.15;2.30;;;12.30;29.70;;;;;;5033189;28;20381;-75
2024/03/01 10:47:26;;;;;;;5.60;2.40;;;12.50;29.70;;;;;;5033196;28;20747;-75
2024/03/01 10:50:19;;;;;;;3.10;1.95;;;12.60;29.00;;;;;;5032893;28;20402;-74
2024/03/01 10:53:07;;;;;;;5.07;2.17;;;12.40;28.50;;;;;;5033394;28;20395;-73
2024/03/01 10:55:39;;;;;;;4.05;2.22;;;12.30;29.00;;;;;;5032999;28;20387;-75
2024/03/01 10:58:15;;;;;;;2.30;1.70;;;12.10;29.30;;;;;;5032445;28;20466;-73
2024/03/01 11:01:07;;;;;;;4.40;2.17;;;11.80;29.90;;;;;;5032715;28;20387;-74
2024/03/01 11:03:46;;;;;;;2.63;1.80;;;11.60;30.60;;;;;;5032876;28;20521;-74
2024/03/01 11:06:38;;;;;;;4.23;1.90;;;11.50;30.60;;;;;;5033086;28;20464;-74
2024/03/01 11:09:24;;;;;;;3.60;1.27;;;11.50;30.40;;;;;;5033612;28;20371;-74
2024/03/01 11:12:01;;;;;;;2.20;1.20;;;11.60;28.50;;;;;;5031926;28;20383;-74
2024/03/01 11:14:31;;;;;;;1.92;1.00;;;11.50;28.00;;;;;;5033006;28;21063;-75
2024/03/01 11:16:58;;;;;;;3.13;1.40;;;11.50;28.10;;;;;;5032157;28;20882;-74
2024/03/01 11:19:29;;;;;;;1.60;1.02;;;11.40;28.10;;;;;;5032625;28;20379;-74
2024/03/01 11:22:22;;;;;;;5.50;1.40;;;11.30;28.60;;;;;;5032853;28;20417;-75
2024/03/01 11:25:19;;;;;;;3.53;1.90;;;11.40;28.80;;;;;;5033405;28;20379;-75
2024/03/01 11:27:54;;;;;;;2.30;1.10;;;11.30;29.10;;;;;;5031370;28;20399;-75
2024/03/01 11:30:23;;;;;;;5.87;1.47;;;11.40;28.80;;;;;;5032852;28;20827;-75
2024/03/01 11:33:00;;;;;;;2.50;1.33;;;11.40;29.00;;;;;;5033204;28;20391;-75
2024/03/01 11:36:07;;;;;;;2.00;1.20;;;11.40;29.00;;;;;;5033499;28;20521;-74
2024/03/01 11:38:39;;;;;;;4.63;1.33;;;11.50;28.90;;;;;;5021731;28;20478;-75
2024/03/01 11:41:13;;;;;;;3.03;1.70;;;11.60;28.90;;;;;;5033824;28;20549;-75
2024/03/01 11:44:13;;;;;;;2.55;1.30;;;11.50;29.20;;;;;;5034323;28;20424;-75
2024/03/01 11:47:10;;;;;;;3.10;1.60;;;11.50;29.10;;;;;;5038244;28;20375;-76
2024/03/01 11:49:44;;;;;;;8.18;2.72;;;11.60;29.30;;;;;;5033559;28;20872;-75
2024/03/01 11:52:27;;;;;;;4.57;1.90;;;11.80;29.30;;;;;;5015104;28;20398;-74
2024/03/01 11:55:08;;;;;;;2.20;1.40;;;12.00;28.30;;;;;;5033006;28;20452;-74
2024/03/01 11:57:37;;;;;;;2.25;1.40;;;12.20;27.60;;;;;;5032176;28;20383;-77
2024/03/01 12:00:09;;;;;;;3.80;1.40;;;12.30;27.50;;;;;;5032877;28;20378;-75
2024/03/01 12:02:38;;;;;;;2.20;0.90;;;12.50;27.10;;;;;;5014900;28;20407;-75
2024/03/01 12:05:27;;;;;;;2.63;1.30;;;12.60;26.80;;;;;;5032067;28;20821;-74
2024/03/01 12:08:18;;;;;;;3.17;1.20;;;12.70;26.40;;;;;;5031883;28;20387;-74
2024/03/01 12:11:19;;;;;;;2.88;1.48;;;12.70;26.30;;;;;;5014538;28;20388;-76
2024/03/01 12:13:55;;;;;;;3.63;1.50;;;12.80;26.60;;;;;;5013393;28;20449;-75
2024/03/01 12:16:52;;;;;;;2.50;1.60;;;13.30;26.60;;;;;;5032735;28;20379;-75
2024/03/01 12:19:42;;;;;;;2.30;1.38;;;13.00;26.50;;;;;;5015421;28;20379;-75
2024/03/01 12:22:49;;;;;;;1.60;1.30;;;13.10;26.20;;;;;;5032855;28;20434;-75
2024/03/01 12:25:16;;;;;;;3.35;1.50;;;13.20;26.00;;;;;;5012347;28;20478;-75
2024/03/01 12:28:15;;;;;;;1.77;1.30;;;13.20;24.70;;;;;;5031970;28;20389;-75
2024/03/01 12:30:56;;;;;;;2.88;1.20;;;13.30;24.00;;;;;;5031100;28;20371;-75
2024/03/01 12:33:44;;;;;;;3.95;1.40;;;13.20;24.20;;;;;;5031481;28;20387;-73
2024/03/01 12:36:27;;;;;;;5.20;1.40;;;13.00;24.40;;;;;;5031530;28;20514;-74
2024/03/01 12:39:03;;;;;;;1.87;1.50;;;12.90;24.60;;;;;;5032043;28;20493;-75
2024/03/01 12:41:41;;;;;;;4.07;1.70;;;12.80;25.30;;;;;;5032165;28;20399;-75
2024/03/01 12:44:34;;;;;;;2.38;1.67;;;12.80;25.40;;;;;;5031673;28;20436;-75
2024/03/01 12:47:08;;;;;;;2.38;1.20;;;12.90;25.60;;;;;;5031763;28;20387;-74
2024/03/01 12:49:52;;;;;;;3.10;1.40;;;12.90;24.60;;;;;;5031334;28;20470;-75
2024/03/01 12:52:31;;;;;;;5.15;1.42;;;13.00;24.50;;;;;;5031068;28;20387;-75
2024/03/01 12:55:08;;;;;;;2.55;1.50;;;13.00;23.70;;;;;;5030758;28;20438;-75
2024/03/01 12:58:05;;;;;;;2.10;1.48;;;13.10;23.90;;;;;;5030885;28;20379;-74
2024/03/01 13:00:51;;;;;;;3.45;1.60;;;12.90;24.00;;;;;;5016771;28;20878;-73